createdAt,value
2023-04-10T00:01:50.729Z,79.30
2023-04-10T00:04:22.586Z,79.41
2023-04-10T00:06:52.932Z,79.70
2023-04-10T00:09:21.417Z,79.82
2023-04-10T00:11:49.814Z,79.96
2023-04-10T00:14:23.509Z,80.25
2023-04-10T00:16:54.481Z,80.46
2023-04-10T00:19:23.238Z,80.56
2023-04-10T00:21:52.029Z,80.57
2023-04-10T00:24:21.646Z,80.64
2023-04-10T00:26:50.533Z,80.93
2023-04-10T00:29:18.913Z,81.24
2023-04-10T00:31:51.716Z,81.18
2023-04-10T00:34:20.503Z,81.09
2023-04-10T00:36:50.716Z,81.00
2023-04-10T00:39:19.616Z,80.77
2023-04-10T00:41:51.372Z,80.66
2023-04-10T00:44:19.964Z,80.71
2023-04-10T00:46:48.442Z,80.95
2023-04-10T00:49:18.769Z,81.48
2023-04-10T00:51:48.278Z,81.61
2023-04-10T00:54:20.040Z,81.77
2023-04-10T00:56:48.625Z,81.84
2023-04-10T00:59:17.635Z,82.00
2023-04-10T01:04:46.437Z,82.40
2023-04-10T01:07:27.623Z,82.74
2023-04-10T01:10:02.144Z,82.87
2023-04-10T01:12:55.203Z,83.21
2023-04-10T01:15:26.049Z,83.40
2023-04-10T01:17:55.052Z,83.41
2023-04-10T01:20:25.893Z,83.33
2023-04-10T01:23:12.906Z,83.32
2023-04-10T01:25:45.168Z,83.30
2023-04-10T01:28:19.820Z,83.35
2023-04-10T01:30:49.015Z,83.65
2023-04-10T01:33:19.529Z,83.61
2023-04-10T01:35:52.959Z,83.55
2023-04-10T01:38:22.027Z,83.32
2023-04-10T01:40:52.984Z,83.37
2023-04-10T01:43:31.591Z,83.45
2023-04-10T01:46:00.125Z,83.55
2023-04-10T01:48:28.878Z,83.88
2023-04-10T01:50:57.965Z,84.08
2023-04-10T01:53:26.757Z,84.19
2023-04-10T01:55:56.366Z,84.26
2023-04-10T01:58:25.051Z,84.28
2023-04-10T02:00:57.228Z,84.20
2023-04-10T02:03:27.221Z,84.17
2023-04-10T02:06:12.110Z,84.34
2023-04-10T02:08:43.912Z,84.74
2023-04-10T02:11:16.147Z,84.52
2023-04-10T02:13:44.835Z,84.54
2023-04-10T02:16:13.880Z,84.68
2023-04-10T02:18:44.262Z,84.62
2023-04-10T02:21:12.639Z,84.16
2023-04-10T02:23:43.991Z,83.68
2023-04-10T02:26:12.471Z,83.65
2023-04-10T02:28:41.773Z,83.68
2023-04-10T02:31:10.192Z,83.68
2023-04-10T02:33:39.469Z,83.69
2023-04-10T02:36:08.703Z,83.68
2023-04-10T02:38:37.248Z,83.79
2023-04-10T02:41:06.621Z,83.72
2023-04-10T02:43:37.284Z,83.76
2023-04-10T02:46:06.893Z,83.92
2023-04-10T02:48:42.875Z,84.10
2023-04-10T02:51:12.061Z,84.11
2023-04-10T02:53:41.060Z,84.32
2023-04-10T02:56:12.229Z,84.29
2023-04-10T02:58:45.704Z,84.13
2023-04-10T03:01:14.805Z,84.26
2023-04-10T03:03:48.428Z,84.51
2023-04-10T03:06:31.538Z,84.61
2023-04-10T03:09:00.934Z,84.48
2023-04-10T03:11:29.524Z,84.22
2023-04-10T03:14:02.713Z,84.17
2023-04-10T03:16:32.350Z,84.40
2023-04-10T03:19:01.529Z,84.72
2023-04-10T03:21:34.823Z,84.95
2023-04-10T03:24:03.416Z,85.06
2023-04-10T03:26:33.322Z,85.17
2023-04-10T03:29:01.989Z,85.38
2023-04-10T03:31:31.949Z,85.81
2023-04-10T03:34:01.276Z,85.85
2023-04-10T03:36:29.744Z,85.81
2023-04-10T03:38:58.199Z,86.12
2023-04-10T03:41:27.502Z,86.40
2023-04-10T03:43:57.077Z,86.65
2023-04-10T03:46:26.025Z,86.45
2023-04-10T03:48:54.997Z,86.50
2023-04-10T03:51:24.928Z,86.70
2023-04-10T03:53:53.741Z,86.65
2023-04-10T03:56:23.012Z,86.74
2023-04-10T03:58:55.483Z,87.22
2023-04-10T04:01:24.579Z,87.53
2023-04-10T04:04:11.585Z,87.52
2023-04-10T04:07:10.491Z,87.58
2023-04-10T04:09:54.758Z,87.78
2023-04-10T04:12:59.913Z,87.61
2023-04-10T04:15:51.823Z,87.86
2023-04-10T04:18:56.046Z,87.63
2023-04-10T04:21:42.363Z,87.24
2023-04-10T04:24:34.175Z,87.18
2023-04-10T04:27:11.883Z,87.28
2023-04-10T04:29:51.844Z,87.07
2023-04-10T04:32:36.018Z,87.06
2023-04-10T04:35:27.605Z,86.98
2023-04-10T04:38:16.975Z,86.97
2023-04-10T04:41:06.780Z,86.95
2023-04-10T04:43:56.483Z,87.29
2023-04-10T04:46:44.638Z,87.26
2023-04-10T04:49:32.118Z,87.24
2023-04-10T04:52:19.440Z,87.46
2023-04-10T04:55:10.765Z,87.56
2023-04-10T04:58:05.558Z,87.46
2023-04-10T05:00:39.687Z,87.20
2023-04-10T05:03:14.098Z,87.15
2023-04-10T05:06:00.398Z,87.11
2023-04-10T05:08:53.409Z,87.32
2023-04-10T05:11:45.802Z,87.04
2023-04-10T05:14:33.426Z,87.05
2023-04-10T05:17:10.818Z,87.06
2023-04-10T05:19:51.793Z,86.56
2023-04-10T05:22:42.705Z,86.47
2023-04-10T05:25:31.069Z,86.58
2023-04-10T05:28:12.641Z,86.31
2023-04-10T05:31:19.657Z,86.58
2023-04-10T05:34:09.211Z,86.74
2023-04-10T05:36:58.889Z,86.57
2023-04-10T05:39:46.658Z,86.63
2023-04-10T05:42:35.786Z,86.56
2023-04-10T05:45:18.715Z,86.60
2023-04-10T05:48:03.848Z,86.19
2023-04-10T05:50:52.541Z,86.13
2023-04-10T05:53:47.655Z,85.99
2023-04-10T05:56:19.308Z,85.74
2023-04-10T05:59:08.880Z,85.70
2023-04-10T06:02:00.457Z,85.64
2023-04-10T06:04:29.667Z,85.76
2023-04-10T06:07:01.563Z,85.84
2023-04-10T06:09:31.734Z,85.87
2023-04-10T06:12:02.737Z,85.60
2023-04-10T06:14:32.339Z,85.45
2023-04-10T06:17:02.664Z,85.26
2023-04-10T06:19:32.375Z,85.41
2023-04-10T06:22:01.169Z,85.47
2023-04-10T06:24:31.186Z,85.64
2023-04-10T06:27:01.097Z,85.46
2023-04-10T06:29:30.016Z,85.12
2023-04-10T06:32:01.244Z,84.96
2023-04-10T06:34:31.679Z,85.04
2023-04-10T06:37:07.237Z,84.72
2023-04-10T06:39:36.008Z,84.57
2023-04-10T06:42:04.904Z,84.72
2023-04-10T06:44:45.671Z,84.91
2023-04-10T06:47:17.226Z,85.12
2023-04-10T06:49:45.653Z,85.14
2023-04-10T06:52:14.321Z,85.17
2023-04-10T06:54:43.085Z,85.41
2023-04-10T06:57:11.779Z,85.56
2023-04-10T06:59:41.280Z,85.89
2023-04-10T07:02:09.780Z,86.00
2023-04-10T07:04:38.245Z,85.86
2023-04-10T07:07:10.117Z,85.23
2023-04-10T07:09:40.027Z,85.19
2023-04-10T07:12:08.812Z,84.99
2023-04-10T07:14:44.362Z,85.00
2023-04-10T07:17:12.842Z,84.82
2023-04-10T07:19:42.667Z,84.49
2023-04-10T07:22:12.884Z,84.61
2023-04-10T07:24:43.220Z,84.67
2023-04-10T07:27:13.230Z,84.39
2023-04-10T07:29:48.159Z,84.28
2023-04-10T07:32:18.240Z,84.12
2023-04-10T07:34:47.684Z,83.49
2023-04-10T07:37:16.167Z,83.16
2023-04-10T07:39:45.188Z,83.40
2023-04-10T07:42:13.591Z,83.51
2023-04-10T07:44:42.125Z,83.70
2023-04-10T07:47:10.918Z,83.84
2023-04-10T07:49:39.407Z,83.82
2023-04-10T07:52:08.207Z,83.31
2023-04-10T07:54:36.882Z,83.30
2023-04-10T07:57:06.280Z,83.37
2023-04-10T07:59:36.301Z,83.60
2023-04-10T08:02:04.801Z,83.89
2023-04-10T08:04:34.458Z,83.99
2023-04-10T08:07:03.285Z,84.13
2023-04-10T08:09:31.676Z,84.13
2023-04-10T08:12:00.655Z,84.00
2023-04-10T08:14:31.288Z,84.48
2023-04-10T08:17:03.297Z,84.52
2023-04-10T08:19:32.253Z,84.48
2023-04-10T08:22:00.735Z,84.31
2023-04-10T08:24:30.033Z,84.38
2023-04-10T08:27:18.277Z,84.44
2023-04-10T08:29:47.580Z,84.39
2023-04-10T08:32:16.264Z,84.28
2023-04-10T08:34:44.644Z,84.00
2023-04-10T08:37:16.106Z,83.96
2023-04-10T08:39:45.400Z,84.16
2023-04-10T08:42:13.890Z,84.37
2023-04-10T08:44:43.909Z,84.44
2023-04-10T08:47:12.280Z,84.76
2023-04-10T08:50:03.498Z,85.07
2023-04-10T08:52:32.491Z,84.90
2023-04-10T08:55:00.877Z,84.68
2023-04-10T08:57:29.588Z,84.67
2023-04-10T08:59:58.503Z,84.73
2023-04-10T09:02:28.534Z,84.70
2023-04-10T09:04:59.314Z,84.67
2023-04-10T09:07:27.891Z,84.77
2023-04-10T09:10:07.044Z,85.03
2023-04-10T09:12:47.701Z,85.03
2023-04-10T09:15:16.381Z,84.93
2023-04-10T09:18:02.049Z,84.89
2023-04-10T09:20:31.739Z,84.85
2023-04-10T09:23:00.188Z,84.32
2023-04-10T09:25:39.106Z,84.26
2023-04-10T09:28:08.632Z,84.34
2023-04-10T09:30:41.313Z,83.63
2023-04-10T09:33:24.605Z,83.51
2023-04-10T09:35:53.088Z,83.71
2023-04-10T09:38:21.999Z,82.31
2023-04-10T09:40:54.882Z,82.54
2023-04-10T09:43:26.120Z,82.76
2023-04-10T09:45:57.869Z,81.11
2023-04-10T09:48:29.728Z,80.58
2023-04-10T09:50:58.109Z,80.75
2023-04-10T09:53:29.049Z,80.52
2023-04-10T09:55:58.357Z,80.32
2023-04-10T09:58:26.739Z,79.87
2023-04-10T10:00:58.085Z,79.06
2023-04-10T10:03:27.691Z,79.47
2023-04-10T10:05:56.384Z,79.06
2023-04-10T10:08:26.497Z,79.78
2023-04-10T10:10:57.749Z,78.32
2023-04-10T10:13:36.781Z,78.33
2023-04-10T10:16:14.611Z,76.90
2023-04-10T10:18:54.043Z,76.79
2023-04-10T10:21:23.630Z,77.25
2023-04-10T10:24:02.421Z,75.61
2023-04-10T10:26:32.086Z,73.95
2023-04-10T10:29:03.728Z,72.09
2023-04-10T10:31:37.383Z,69.39
2023-04-10T10:34:07.763Z,66.96
2023-04-10T10:36:36.792Z,64.47
2023-04-10T10:39:05.237Z,62.68
2023-04-10T10:41:48.360Z,62.39
2023-04-10T10:44:23.808Z,62.73
2023-04-10T10:47:15.145Z,63.15
2023-04-10T10:49:55.895Z,60.83
2023-04-10T10:52:40.861Z,61.14
2023-04-10T10:55:28.406Z,63.38
2023-04-10T10:57:58.661Z,64.52
2023-04-10T11:00:47.815Z,64.13
2023-04-10T11:03:18.837Z,63.64
2023-04-10T11:05:59.714Z,63.09
2023-04-10T11:08:34.146Z,61.17
2023-04-10T11:11:07.757Z,61.32
2023-04-10T11:13:39.590Z,60.15
2023-04-10T11:16:12.934Z,59.95
2023-04-10T11:19:12.796Z,59.29
2023-04-10T11:22:01.183Z,60.51
2023-04-10T11:24:54.636Z,60.59
2023-04-10T11:27:46.549Z,61.65
2023-04-10T11:30:31.541Z,60.01
2023-04-10T11:33:01.034Z,58.53
2023-04-10T11:35:31.874Z,59.12
2023-04-10T11:38:14.892Z,58.71
2023-04-10T11:40:57.060Z,58.38
2023-04-10T11:43:25.888Z,58.61
2023-04-10T11:46:04.967Z,59.22
2023-04-10T11:48:33.608Z,59.52
2023-04-10T11:51:09.900Z,59.67
2023-04-10T11:53:39.528Z,57.40
2023-04-10T11:56:18.616Z,57.21
2023-04-10T11:58:49.452Z,58.17
2023-04-10T12:01:17.831Z,56.51
2023-04-10T12:03:47.049Z,53.27
2023-04-10T12:06:16.437Z,53.52
2023-04-10T12:08:47.767Z,53.75
2023-04-10T12:11:18.634Z,52.56
2023-04-10T12:13:48.379Z,52.06
2023-04-10T12:16:17.153Z,51.56
2023-04-10T12:18:45.613Z,51.85
2023-04-10T12:21:13.991Z,51.46
2023-04-10T12:23:48.329Z,52.06
2023-04-10T12:26:18.099Z,52.22
2023-04-10T12:28:59.825Z,51.94
2023-04-10T12:31:36.580Z,51.61
2023-04-10T12:34:09.199Z,52.83
2023-04-10T12:36:38.587Z,53.68
2023-04-10T12:39:08.954Z,54.80
2023-04-10T12:41:37.824Z,54.26
2023-04-10T12:44:13.283Z,54.22
2023-04-10T12:46:42.427Z,55.82
2023-04-10T12:49:14.430Z,57.43
2023-04-10T12:51:51.739Z,59.62
2023-04-10T12:54:31.404Z,60.12
2023-04-10T12:57:07.428Z,60.03
2023-04-10T12:59:36.412Z,61.91
2023-04-10T13:02:04.871Z,62.74
2023-04-10T13:04:34.407Z,61.29
2023-04-10T13:07:03.292Z,60.97
2023-04-10T13:09:31.772Z,58.32
2023-04-10T13:12:09.180Z,57.23
2023-04-10T13:14:38.167Z,56.01
2023-04-10T13:17:06.647Z,54.92
2023-04-10T13:22:13.336Z,54.27
2023-04-10T13:24:42.468Z,54.56
2023-04-10T13:27:16.239Z,55.14
2023-04-10T13:29:46.473Z,54.35
2023-04-10T13:32:15.872Z,55.00
2023-04-10T13:34:46.010Z,56.03
2023-04-10T13:37:15.195Z,56.54
2023-04-10T13:39:43.891Z,56.96
2023-04-10T13:42:13.763Z,58.60
2023-04-10T13:44:42.200Z,59.54
2023-04-10T13:47:15.219Z,60.46
2023-04-10T13:49:44.982Z,62.32
2023-04-10T13:52:13.670Z,63.07
2023-04-10T13:54:44.414Z,63.26
2023-04-10T13:57:12.788Z,62.77
2023-04-10T13:59:45.069Z,62.13
2023-04-10T14:02:14.010Z,61.72
2023-04-10T14:04:43.157Z,60.73
2023-04-10T14:07:12.165Z,59.37
2023-04-10T14:09:41.049Z,58.86
2023-04-10T14:12:09.635Z,57.70
2023-04-10T14:14:41.080Z,57.65
2023-04-10T14:17:09.662Z,58.04
2023-04-10T14:19:38.762Z,59.17
2023-04-10T14:22:07.142Z,60.43
2023-04-10T14:24:36.954Z,60.35
2023-04-10T14:27:06.461Z,60.38
2023-04-10T14:29:40.606Z,60.94
2023-04-10T14:32:13.568Z,61.19
2023-04-10T14:34:42.495Z,61.05
2023-04-10T14:37:11.511Z,60.63
2023-04-10T14:39:44.133Z,61.22
2023-04-10T14:42:12.610Z,62.01
2023-04-10T14:44:41.197Z,62.72
2023-04-10T14:47:11.014Z,63.18
2023-04-10T14:49:41.032Z,63.34
2023-04-10T14:52:09.927Z,63.36
2023-04-10T14:54:38.529Z,62.66
2023-04-10T14:57:06.906Z,61.12
2023-04-10T14:59:36.526Z,58.27
2023-04-10T15:02:04.924Z,55.93
2023-04-10T15:04:33.509Z,55.38
2023-04-10T15:07:02.159Z,54.02
2023-04-10T15:09:31.151Z,52.29
2023-04-10T15:12:02.094Z,51.12
2023-04-10T15:14:31.099Z,49.68
2023-04-10T15:16:59.532Z,48.47
2023-04-10T15:19:33.792Z,47.21
2023-04-10T15:22:02.825Z,45.89
2023-04-10T15:24:34.640Z,44.58
2023-04-10T15:27:11.934Z,41.94
2023-04-10T15:29:42.781Z,40.85
2023-04-10T15:32:15.361Z,40.62
2023-04-10T15:34:45.287Z,40.87
2023-04-10T15:37:13.645Z,40.70
2023-04-10T15:39:45.005Z,40.16
2023-04-10T15:42:13.608Z,39.32
2023-04-10T15:44:42.293Z,39.03
2023-04-10T15:47:10.664Z,38.53
2023-04-10T15:49:44.363Z,38.37
2023-04-10T15:52:12.744Z,38.04
2023-04-10T15:54:42.580Z,37.85
2023-04-10T15:57:15.557Z,37.81
2023-04-10T15:59:44.034Z,38.64
2023-04-10T16:02:12.478Z,38.92
2023-04-10T16:04:46.413Z,38.40
2023-04-10T16:07:15.037Z,39.19
2023-04-10T16:09:43.604Z,39.73
2023-04-10T16:12:14.444Z,41.19
2023-04-10T16:14:43.237Z,42.29
2023-04-10T16:17:11.615Z,43.25
2023-04-10T16:19:55.357Z,43.89
2023-04-10T16:22:24.365Z,44.78
2023-04-10T16:24:56.422Z,45.77
2023-04-10T16:27:25.008Z,46.40
2023-04-10T16:29:54.317Z,47.02
2023-04-10T16:32:23.731Z,47.78
2023-04-10T16:34:52.204Z,48.72
2023-04-10T16:37:20.692Z,49.58
2023-04-10T16:39:56.448Z,50.88
2023-04-10T16:42:25.024Z,52.06
2023-04-10T16:44:53.922Z,52.91
2023-04-10T16:47:25.756Z,53.47
2023-04-10T16:49:54.167Z,53.84
2023-04-10T16:52:23.691Z,54.16
2023-04-10T16:54:52.159Z,54.65
2023-04-10T16:57:21.970Z,55.16
2023-04-10T17:00:00.646Z,55.75
2023-04-10T17:02:33.716Z,56.35
2023-04-10T17:05:02.172Z,56.92
2023-04-10T17:07:34.551Z,57.26
2023-04-10T17:10:04.663Z,57.77
2023-04-10T17:12:33.998Z,58.21
2023-04-10T17:15:03.838Z,58.89
2023-04-10T17:17:34.461Z,59.31
2023-04-10T17:20:03.461Z,59.87
2023-04-10T17:22:32.318Z,60.47
2023-04-10T17:25:03.604Z,61.03
2023-04-10T17:27:36.253Z,61.60
2023-04-10T17:30:13.235Z,62.13
2023-04-10T17:32:44.958Z,62.58
2023-04-10T17:35:13.583Z,62.99
2023-04-10T17:37:42.165Z,63.23
2023-04-10T17:40:11.395Z,63.20
2023-04-10T17:42:45.168Z,63.23
2023-04-10T17:45:13.656Z,63.45
2023-04-10T17:47:42.814Z,63.69
2023-04-10T17:50:12.673Z,63.68
2023-04-10T17:52:41.771Z,63.86
2023-04-10T17:55:20.392Z,64.13
2023-04-10T17:57:52.376Z,64.20
2023-04-10T18:00:21.569Z,64.44
2023-04-10T18:02:50.265Z,64.41
2023-04-10T18:05:19.558Z,64.48
2023-04-10T18:07:48.038Z,64.40
2023-04-10T18:10:16.614Z,64.50
2023-04-10T18:12:45.919Z,64.57
2023-04-10T18:15:15.446Z,64.62
2023-04-10T18:17:44.661Z,64.64
2023-04-10T18:20:13.013Z,64.64
2023-04-10T18:22:41.493Z,64.25
2023-04-10T18:25:10.504Z,64.36
2023-04-10T18:27:48.034Z,64.47
2023-04-10T18:30:24.767Z,64.47
2023-04-10T18:32:54.194Z,64.70
2023-04-10T18:35:23.087Z,64.97
2023-04-10T18:37:51.858Z,65.21
2023-04-10T18:40:24.335Z,65.12
2023-04-10T18:42:54.163Z,65.42
2023-04-10T18:45:22.534Z,65.66
2023-04-10T18:47:51.506Z,65.63
2023-04-10T18:50:20.220Z,65.63
2023-04-10T18:52:54.428Z,65.63
2023-04-10T18:55:23.528Z,65.58
2023-04-10T18:57:51.909Z,65.55
2023-04-10T19:00:20.904Z,65.60
2023-04-10T19:02:50.749Z,65.73
2023-04-10T19:05:19.507Z,65.68
2023-04-10T19:08:00.788Z,65.69
2023-04-10T19:10:32.683Z,65.92
2023-04-10T19:13:12.280Z,66.11
2023-04-10T19:15:47.465Z,66.38
2023-04-10T19:18:16.678Z,66.28
2023-04-10T19:20:49.912Z,66.37
2023-04-10T19:23:22.629Z,66.51
2023-04-10T19:25:52.546Z,66.49
2023-04-10T19:28:21.226Z,66.46
2023-04-10T19:31:09.622Z,66.64
2023-04-10T19:33:39.390Z,66.60
2023-04-10T19:36:08.863Z,66.67
2023-04-10T19:38:37.280Z,66.94
2023-04-10T19:41:15.698Z,67.13
2023-04-10T19:43:45.241Z,67.08
2023-04-10T19:46:19.369Z,67.07
2023-04-10T19:48:49.965Z,67.12
2023-04-10T19:51:18.687Z,67.31
2023-04-10T19:53:47.124Z,67.39
2023-04-10T19:56:16.976Z,67.28
2023-04-10T19:58:46.968Z,67.59
2023-04-10T20:01:15.965Z,67.88
2023-04-10T20:03:47.259Z,67.93
2023-04-10T20:06:16.248Z,68.04
2023-04-10T20:08:48.371Z,68.13
2023-04-10T20:11:16.749Z,68.33
2023-04-10T20:13:50.868Z,68.23
2023-04-10T20:16:21.734Z,68.29
2023-04-10T20:18:53.491Z,68.74
2023-04-10T20:21:22.054Z,68.81
2023-04-10T20:23:52.689Z,68.73
2023-04-10T20:26:21.485Z,68.76
2023-04-10T20:28:49.960Z,68.72
2023-04-10T20:31:21.974Z,68.73
2023-04-10T20:33:50.921Z,68.78
2023-04-10T20:36:19.410Z,68.77
2023-04-10T20:38:49.015Z,68.90
2023-04-10T20:41:17.500Z,68.95
2023-04-10T20:43:46.489Z,68.91
2023-04-10T20:46:15.293Z,68.87
2023-04-10T20:48:46.539Z,68.85
2023-04-10T20:51:15.424Z,68.98
2023-04-10T20:53:43.804Z,69.15
2023-04-10T20:56:12.200Z,69.14
2023-04-10T20:58:41.179Z,69.23
2023-04-10T21:01:10.240Z,69.25
2023-04-10T21:03:39.679Z,69.28
2023-04-10T21:06:09.090Z,69.04
2023-04-10T21:08:39.110Z,68.91
2023-04-10T21:11:08.011Z,68.87
2023-04-10T21:13:38.516Z,68.75
2023-04-10T21:16:07.462Z,68.85
2023-04-10T21:18:36.119Z,68.79
2023-04-10T21:21:08.535Z,68.63
2023-04-10T21:23:37.180Z,68.75
2023-04-10T21:26:05.664Z,68.44
2023-04-10T21:28:35.690Z,68.28
2023-04-10T21:31:04.171Z,68.33
2023-04-10T21:33:33.271Z,68.32
2023-04-10T21:36:01.781Z,68.13
2023-04-10T21:38:31.052Z,68.11
2023-04-10T21:40:59.537Z,68.17
2023-04-10T21:43:29.769Z,68.40
2023-04-10T21:45:59.473Z,68.45
2023-04-10T21:48:30.308Z,68.35
2023-04-10T21:50:58.892Z,68.28
2023-04-10T21:53:27.681Z,68.18
2023-04-10T21:55:56.739Z,68.26
2023-04-10T21:58:25.156Z,68.30
2023-04-10T22:00:54.784Z,68.27
2023-04-10T22:03:24.454Z,68.38
2023-04-10T22:05:53.886Z,68.31
2023-04-10T22:08:22.466Z,68.29
2023-04-10T22:10:51.361Z,68.31
2023-04-10T22:13:30.861Z,68.37
2023-04-10T22:16:02.178Z,68.34
2023-04-10T22:18:32.055Z,68.48
2023-04-10T22:21:10.277Z,68.56
2023-04-10T22:23:39.785Z,68.76
2023-04-10T22:26:08.679Z,68.75
2023-04-10T22:28:42.901Z,68.86
2023-04-10T22:31:18.204Z,68.87
2023-04-10T22:33:46.619Z,69.11
2023-04-10T22:36:16.023Z,68.91
2023-04-10T22:38:44.414Z,68.98
2023-04-10T22:41:13.913Z,69.01
2023-04-10T22:43:42.391Z,69.14
2023-04-10T22:46:12.948Z,68.97
2023-04-10T22:48:41.803Z,68.91
2023-04-10T22:51:11.838Z,69.03
2023-04-10T22:53:40.937Z,68.97
2023-04-10T22:56:10.326Z,69.06
2023-04-10T22:58:43.339Z,69.22
2023-04-10T23:01:13.682Z,69.24
2023-04-10T23:03:43.669Z,69.35
2023-04-10T23:06:13.590Z,69.23
2023-04-10T23:08:42.070Z,69.41
2023-04-10T23:11:10.554Z,69.66
2023-04-10T23:13:42.819Z,69.61
2023-04-10T23:16:12.206Z,69.59
2023-04-10T23:18:41.426Z,69.64
2023-04-10T23:21:11.033Z,69.67
2023-04-10T23:23:40.045Z,69.63
2023-04-10T23:26:08.716Z,69.62
2023-04-10T23:28:37.516Z,69.47
2023-04-10T23:31:06.448Z,69.42
2023-04-10T23:33:34.785Z,69.33
2023-04-10T23:36:03.174Z,69.43
2023-04-10T23:38:32.667Z,69.49
2023-04-10T23:41:03.226Z,69.64
2023-04-10T23:43:32.424Z,69.71
2023-04-10T23:46:01.211Z,69.49
2023-04-10T23:48:30.388Z,69.45
2023-04-10T23:51:08.864Z,69.50
2023-04-10T23:53:37.386Z,69.50
2023-04-10T23:56:08.124Z,69.66
2023-04-10T23:58:36.760Z,69.60
